Atwood, Kentucky
Current Conditions -  °F | °C
As of 4:52 AM on Friday 21 Nov 2014 (Local Time) from KCVG Reporting Station
Clear Clear  
Wind Chill: 11°   Ceiling: Unl
Heat Index: 19°   Visibility: 10mi
Dew Point:   Wind: 6mph
Humidity: 59%   Direction: 310°NW
Pressure: 30.39"   Gusts: NA
Location:  38.8354°N, 84.5143°W
Report Text: KCVG 210952Z 31005KT 10SM CLR M07/M14 A3039 RMK AO2 SLP299 T10721139
Loading
Personal Weather Stations






























Interactive Weather Map New forecast layout! Learn more

10-Day Weather Forecast

Advertisements
Track Severe Weather on mobile